Colchester, VT

10:26 PM EDT on October 22, 2014 (GMT -0400)
RAWS ESSEX JUNCTION VT US | Change Station
CLOSE
Current Station
Personal Weather Station
Location: Burlington, VT
Elevation: 339 ft
Nearby Weather Stations

Elev 339 ft 44.51 °N, 73.12 °W | Updated 24 minutes ago

Mostly Cloudy
Mostly Cloudy
48 °F
Feels Like 45 °F
N
6
Wind Variable Wind from NW
Gusts 13.0 mph

Today
High -- | Low -- °F
--% Chance of Precip.
Yesterday
High -- | Low -- °F
Precip. -- in
7:16 AM 5:56 PM
Waning Crescent, 1% visible
Pressure 30.11 in
Visibility 10.0 miles
Clouds Mostly Cloudy 4300 ft
Windchill 45 °F
Dew Point 40 °F
Humidity 75%
Rainfall 0.12 in
Snow Depth Not available.
UV 0 out of 12
Pollen .10 out of 12
Air Quality Not available.
Flu Activity Not available.
METAR KBTV 230154Z 35014KT 10SM BKN043 09/03 A3011 RMK AO2 SLP196 T00940033

More Conditions Fewer Conditions

Pressure 30.11 in
Visibility 10.0 miles
Clouds Mostly Cloudy 4300 ft
Windchill 45 °F
Dew Point 40 °F
Humidity 75%
Rainfall 0.12 in
Snow Depth Not available.
UV 0 out of 12
Pollen .10 out of 12
Air Quality Not available.
Flu Activity Not available.
METAR KBTV 230154Z 35014KT 10SM BKN043 09/03 A3011 RMK AO2 SLP196 T00940033

More Conditions Fewer Conditions

10-Day Weather Forecast

Almanac

Astronomy

Oct. 22, 2014 Rise Set
Actual Time 7:16 AM EDT 5:56 PM EDT
Civil Twilight 6:47 AM EDT 6:26 PM EDT
Nautical Twilight 6:13 AM EDT 7:00 PM EDT
Astronomical Twilight 5:39 AM EDT 7:33 PM EDT
Moon 5:52 AM EDT (10/22) 5:23 PM EDT (10/22)
Length of Visible Light 11h 39m
Length of Day
10h 39m
Tomorrow will be 2m 55s shorter.
Waning Crescent, 1% of the Moon is Illuminated
Today
Waning Crescent
Oct 23
New
Oct 30
First Quarter
Nov 6
Full
Nov 14
Last Quarter

Today's Extremes

State Highs State Lows

Community

WunderPhotos

Upload Photos

1,764,109 photos uploaded!

Nearby

Snow Depth

Station Depth Elevation
No new snow has been reported.

Earthquake Activity

City Distance Mag. Time & Date
No recent earthquake activity has been reported nearby.
Minimum magnitude displayed is 2.5.

Coastal Water Temperatures

Place Temperature
No Stations Reporting

Nearby Weather Stations